Time;durP1;ratioP1;P1;durP2;ratioP2;P2;SDS_P1;SDS_P2;PMS_P1;PMS_P2;Temp;Humidity;BMP_temperature;BMP_pressure;BME280_temperature;BME280_humidity;BME280_pressure;Samples;Min_cycle;Max_cycle;Signal;HPM_P1;HPM_P2
2021/03/03 00:01:28;;;;;;;54.97;21.67;;;3.30;96.90;;;;;;5026558;28;20469;-62
2021/03/03 00:03:54;;;;;;;58.67;20.98;;;3.20;96.70;;;;;;5022378;28;20104;-62
2021/03/03 00:06:21;;;;;;;53.00;20.00;;;3.20;97.00;;;;;;5027521;28;20087;-62
2021/03/03 00:08:47;;;;;;;51.63;20.73;;;3.20;96.80;;;;;;5026352;28;20052;-62
2021/03/03 00:11:14;;;;;;;49.55;19.77;;;3.10;97.00;;;;;;5028752;28;20056;-63
2021/03/03 00:13:40;;;;;;;50.90;20.05;;;3.10;97.30;;;;;;5027376;28;20048;-62
2021/03/03 00:16:07;;;;;;;52.33;21.10;;;3.10;97.40;;;;;;5028538;28;20053;-62
2021/03/03 00:18:34;;;;;;;50.28;19.08;;;3.10;97.30;;;;;;5027251;28;20053;-62
2021/03/03 00:21:01;;;;;;;55.15;20.73;;;3.10;97.10;;;;;;5028682;28;20118;-62
2021/03/03 00:23:27;;;;;;;55.90;18.73;;;3.00;97.40;;;;;;5027006;28;20435;-62
2021/03/03 00:25:54;;;;;;;50.83;18.33;;;3.00;97.40;;;;;;5027177;28;20041;-62
2021/03/03 00:28:20;;;;;;;46.03;16.33;;;3.00;97.50;;;;;;5028244;28;20049;-62
2021/03/03 00:30:47;;;;;;;47.35;17.88;;;3.00;97.90;;;;;;5028468;28;20057;-62
2021/03/03 00:33:13;;;;;;;42.75;17.73;;;3.00;97.90;;;;;;5029572;28;20394;-62
2021/03/03 00:35:40;;;;;;;49.85;16.05;;;3.00;98.20;;;;;;5028403;28;20052;-62
2021/03/03 00:38:06;;;;;;;51.00;18.00;;;2.90;98.10;;;;;;5027511;28;20057;-62
2021/03/03 00:40:33;;;;;;;46.85;16.08;;;2.90;97.50;;;;;;5030099;28;20127;-62
2021/03/03 00:43:00;;;;;;;42.70;17.27;;;2.90;97.70;;;;;;5033849;28;20044;-62
2021/03/03 00:45:26;;;;;;;45.35;17.08;;;2.80;98.00;;;;;;5029832;28;20424;-62
2021/03/03 00:47:56;;;;;;;46.65;16.88;;;2.80;98.20;;;;;;5028598;28;20140;-62
2021/03/03 00:50:25;;;;;;;46.97;17.08;;;2.80;98.10;;;;;;5031151;28;20152;-62
2021/03/03 00:52:55;;;;;;;47.42;18.80;;;2.80;98.10;;;;;;5027709;28;20092;-62
2021/03/03 00:55:24;;;;;;;51.05;18.02;;;2.70;97.80;;;;;;5027047;28;20041;-62
2021/03/03 00:57:52;;;;;;;51.65;18.67;;;2.70;97.70;;;;;;5022685;28;20040;-62
2021/03/03 01:00:35;;;;;;;45.47;17.08;;;2.60;97.90;;;;;;5033673;28;20095;-62
2021/03/03 01:03:04;;;;;;;50.90;17.90;;;2.60;97.70;;;;;;5031540;28;20045;-63
2021/03/03 01:05:32;;;;;;;50.65;17.95;;;2.60;98.00;;;;;;5028816;28;20095;-62
2021/03/03 01:08:00;;;;;;;55.55;19.17;;;2.50;97.40;;;;;;5030343;28;20345;-63
2021/03/03 01:10:26;;;;;;;52.55;17.63;;;2.50;97.70;;;;;;5032384;28;20037;-63
2021/03/03 01:12:53;;;;;;;54.90;19.15;;;2.50;97.90;;;;;;5031082;28;20041;-63
2021/03/03 01:15:21;;;;;;;50.17;18.30;;;2.40;98.30;;;;;;5028818;28;20029;-62
2021/03/03 01:17:54;;;;;;;48.28;17.23;;;2.40;98.00;;;;;;5030076;28;20408;-62
2021/03/03 01:20:21;;;;;;;50.78;17.27;;;2.40;98.00;;;;;;5031698;28;20052;-62
2021/03/03 01:22:47;;;;;;;51.85;18.60;;;2.40;98.20;;;;;;5013779;28;20045;-62
2021/03/03 01:25:14;;;;;;;53.03;18.25;;;2.40;98.10;;;;;;5031548;28;20041;-63
2021/03/03 01:27:40;;;;;;;56.00;18.42;;;2.40;98.00;;;;;;5031254;28;20051;-62
2021/03/03 01:30:07;;;;;;;52.10;19.67;;;2.30;98.00;;;;;;5032151;28;20354;-63
2021/03/03 01:32:34;;;;;;;54.75;17.83;;;2.30;98.20;;;;;;5030778;28;20037;-62
2021/03/03 01:35:00;;;;;;;54.05;18.45;;;2.30;98.00;;;;;;5030232;28;20061;-63
2021/03/03 01:37:27;;;;;;;49.45;18.35;;;2.30;98.00;;;;;;5031980;28;20049;-62
2021/03/03 01:39:53;;;;;;;49.33;18.38;;;2.30;98.20;;;;;;5032917;28;20052;-62
2021/03/03 01:42:20;;;;;;;54.67;18.35;;;2.20;98.30;;;;;;5031547;28;20140;-62
2021/03/03 01:44:47;;;;;;;44.78;17.40;;;2.20;98.30;;;;;;5030075;28;20049;-62
2021/03/03 01:47:13;;;;;;;51.15;17.92;;;2.20;98.30;;;;;;5024814;28;20045;-62
2021/03/03 01:49:40;;;;;;;46.75;15.95;;;2.10;98.20;;;;;;5031180;28;20037;-62
2021/03/03 01:52:08;;;;;;;48.03;17.27;;;2.10;98.20;;;;;;5030307;28;20045;-62
2021/03/03 01:54:35;;;;;;;43.63;15.85;;;2.10;98.40;;;;;;5031694;28;20099;-63
2021/03/03 01:57:02;;;;;;;51.08;15.88;;;2.00;98.40;;;;;;5031393;28;20050;-63
2021/03/03 01:59:29;;;;;;;51.13;16.27;;;1.90;98.70;;;;;;5032508;28;20127;-62
2021/03/03 02:01:56;;;;;;;47.25;15.52;;;1.90;99.10;;;;;;5028262;28;20041;-62
2021/03/03 02:04:23;;;;;;;51.28;17.00;;;1.90;99.20;;;;;;5029978;28;20049;-62
2021/03/03 02:07:06;;;;;;;41.40;14.40;;;1.90;99.30;;;;;;5030757;28;20061;-65
2021/03/03 02:09:55;;;;;;;41.38;13.93;;;1.90;99.20;;;;;;5045676;28;20056;-62
2021/03/03 02:12:38;;;;;;;41.42;14.70;;;1.90;99.10;;;;;;5030279;28;20041;-62
2021/03/03 02:15:06;;;;;;;41.30;14.77;;;1.90;98.70;;;;;;5030470;28;20488;-62
2021/03/03 02:17:35;;;;;;;43.72;14.60;;;1.90;98.60;;;;;;5031197;28;20476;-63
2021/03/03 02:20:06;;;;;;;39.45;13.18;;;1.80;98.50;;;;;;5029828;28;20041;-63
2021/03/03 02:23:05;;;;;;;40.90;15.60;;;1.90;98.90;;;;;;5006988;28;20049;-62
2021/03/03 02:25:33;;;;;;;35.33;13.82;;;1.80;98.70;;;;;;5019555;28;20045;-62
2021/03/03 02:28:02;;;;;;;40.45;15.23;;;1.80;99.00;;;;;;5030817;28;20037;-63
2021/03/03 02:30:32;;;;;;;38.95;14.38;;;1.80;98.80;;;;;;5028879;28;20570;-63
2021/03/03 02:33:00;;;;;;;39.72;14.70;;;1.80;99.00;;;;;;5029410;28;20053;-62
2021/03/03 02:35:27;;;;;;;40.67;14.52;;;1.70;98.80;;;;;;5031273;28;20473;-63
2021/03/03 02:37:55;;;;;;;39.45;14.77;;;1.70;99.10;;;;;;5021628;28;20049;-62
2021/03/03 02:40:22;;;;;;;41.05;14.52;;;1.70;99.00;;;;;;5031435;28;20065;-62
2021/03/03 02:42:49;;;;;;;44.40;15.43;;;1.70;98.90;;;;;;5017312;28;20054;-64
2021/03/03 02:45:18;;;;;;;41.17;15.05;;;1.70;98.80;;;;;;5003559;28;20103;-63
2021/03/03 02:47:46;;;;;;;41.67;14.38;;;1.70;98.80;;;;;;5030140;28;20049;-62
2021/03/03 02:50:14;;;;;;;41.75;14.55;;;1.70;99.00;;;;;;5019799;28;20038;-63
2021/03/03 02:52:54;;;;;;;46.05;14.68;;;1.70;99.00;;;;;;5027932;28;20049;-63
2021/03/03 02:55:24;;;;;;;33.50;14.43;;;1.70;99.30;;;;;;5029154;28;20046;-62
2021/03/03 02:57:51;;;;;;;35.70;14.10;;;1.60;99.20;;;;;;5039160;28;20078;-63
2021/03/03 03:00:43;;;;;;;42.88;15.27;;;1.60;99.30;;;;;;5030422;28;20045;-62
2021/03/03 03:03:23;;;;;;;38.25;13.98;;;1.60;99.30;;;;;;5029564;28;20038;-62
2021/03/03 03:06:00;;;;;;;35.35;13.93;;;1.60;99.10;;;;;;5029712;28;20103;-63
2021/03/03 03:08:29;;;;;;;40.03;14.23;;;1.60;99.10;;;;;;5029478;28;20053;-62
2021/03/03 03:11:00;;;;;;;47.50;15.23;;;1.60;99.40;;;;;;5031152;28;20464;-63
2021/03/03 03:13:29;;;;;;;38.53;13.82;;;1.50;99.90;;;;;;5029502;28;20416;-62
2021/03/03 03:15:55;;;;;;;36.33;13.75;;;1.50;99.80;;;;;;5029477;28;20152;-62
2021/03/03 03:18:26;;;;;;;41.63;14.85;;;1.50;99.60;;;;;;5024341;28;20034;-62
2021/03/03 03:20:54;;;;;;;37.95;13.65;;;1.50;99.60;;;;;;5026113;28;20038;-62
2021/03/03 03:23:22;;;;;;;32.72;13.38;;;1.50;99.50;;;;;;5028728;28;20057;-62
2021/03/03 03:25:52;;;;;;;38.40;13.32;;;1.50;99.60;;;;;;5029750;28;20042;-63
2021/03/03 03:28:19;;;;;;;36.15;13.82;;;1.50;99.40;;;;;;5029492;28;20045;-62
2021/03/03 03:30:46;;;;;;;40.90;14.50;;;1.50;99.10;;;;;;5011959;28;20428;-62
2021/03/03 03:33:13;;;;;;;41.88;13.82;;;1.50;99.20;;;;;;5031094;28;20048;-63
2021/03/03 03:35:40;;;;;;;43.45;14.98;;;1.50;99.30;;;;;;5025156;28;20676;-62
2021/03/03 03:38:07;;;;;;;45.53;15.07;;;1.40;99.10;;;;;;5030761;28;20503;-63
2021/03/03 03:40:33;;;;;;;38.50;13.45;;;1.40;99.20;;;;;;5029292;28;20038;-62
2021/03/03 03:43:02;;;;;;;38.78;13.57;;;1.40;99.10;;;;;;5030647;28;20041;-63
2021/03/03 03:45:29;;;;;;;37.92;13.07;;;1.30;99.30;;;;;;5028159;28;20099;-63
2021/03/03 03:47:56;;;;;;;45.20;16.45;;;1.30;98.90;;;;;;5028664;28;20412;-61
2021/03/03 03:50:25;;;;;;;43.33;16.90;;;1.20;99.20;;;;;;5029989;28;20077;-62
2021/03/03 03:52:56;;;;;;;45.15;14.73;;;1.30;99.10;;;;;;5029400;28;20060;-63
2021/03/03 03:55:49;;;;;;;34.42;13.68;;;1.30;99.20;;;;;;5026494;28;20053;-64
2021/03/03 03:58:15;;;;;;;37.10;12.27;;;1.20;98.90;;;;;;5020946;28;20058;-63
2021/03/03 04:00:42;;;;;;;43.65;13.82;;;1.20;98.90;;;;;;5027606;28;20049;-63
2021/03/03 04:03:09;;;;;;;32.15;12.82;;;1.20;98.70;;;;;;5028300;28;20033;-62
2021/03/03 04:05:36;;;;;;;37.17;12.85;;;1.20;98.60;;;;;;5028727;28;20049;-63
2021/03/03 04:08:03;;;;;;;32.47;12.25;;;1.20;98.50;;;;;;5030153;28;20062;-63
2021/03/03 04:10:30;;;;;;;38.42;13.27;;;1.20;98.40;;;;;;5029972;28;20073;-63
2021/03/03 04:12:56;;;;;;;34.63;13.23;;;1.10;98.70;;;;;;5029144;28;20056;-63
2021/03/03 04:15:23;;;;;;;31.83;13.82;;;1.10;98.70;;;;;;5022448;28;20445;-63
2021/03/03 04:17:51;;;;;;;39.95;14.15;;;1.10;98.60;;;;;;5033980;28;20050;-63
2021/03/03 04:20:19;;;;;;;39.15;13.98;;;1.10;98.50;;;;;;5021194;28;20268;-63
2021/03/03 04:22:46;;;;;;;45.72;15.43;;;1.10;98.60;;;;;;5015164;28;20057;-62
2021/03/03 04:25:15;;;;;;;52.13;18.58;;;1.00;98.80;;;;;;5026286;28;20041;-62
2021/03/03 04:27:42;;;;;;;44.92;16.95;;;1.10;99.10;;;;;;5030988;28;20042;-63
2021/03/03 04:30:12;;;;;;;47.13;15.88;;;1.10;99.10;;;;;;5030787;28;20030;-62
2021/03/03 04:32:38;;;;;;;41.72;13.52;;;1.00;99.00;;;;;;5033400;28;20049;-62
2021/03/03 04:35:06;;;;;;;37.42;13.88;;;1.00;99.10;;;;;;5033778;28;20072;-62
2021/03/03 04:37:34;;;;;;;42.95;16.30;;;1.00;99.10;;;;;;5032763;28;20068;-62
2021/03/03 04:40:03;;;;;;;40.15;16.35;;;1.00;99.00;;;;;;5007594;28;20060;-63
2021/03/03 04:42:29;;;;;;;42.63;16.40;;;1.00;99.00;;;;;;5031920;28;20068;-62
2021/03/03 04:44:56;;;;;;;41.95;16.65;;;1.00;99.10;;;;;;5038028;28;20079;-63
2021/03/03 04:47:22;;;;;;;41.45;14.85;;;0.90;98.90;;;;;;5029767;28;20042;-63
2021/03/03 04:49:49;;;;;;;37.67;15.27;;;0.90;99.00;;;;;;5033100;28;20042;-62
2021/03/03 04:52:15;;;;;;;40.60;14.85;;;0.90;99.20;;;;;;5038320;28;20045;-63
2021/03/03 04:54:42;;;;;;;35.88;13.88;;;0.90;99.30;;;;;;5032261;28;20443;-63
2021/03/03 04:57:08;;;;;;;35.47;13.70;;;0.80;99.40;;;;;;5030752;28;20053;-62
2021/03/03 04:59:35;;;;;;;38.88;14.13;;;0.80;99.30;;;;;;5033238;28;20042;-62
2021/03/03 05:02:01;;;;;;;35.40;14.05;;;0.80;99.50;;;;;;5031945;28;20045;-62
2021/03/03 05:04:28;;;;;;;37.67;13.73;;;0.80;99.50;;;;;;5031418;28;20046;-62
2021/03/03 05:06:54;;;;;;;40.65;13.93;;;0.80;99.50;;;;;;5031900;28;20045;-62
2021/03/03 05:09:21;;;;;;;36.20;12.43;;;0.80;99.50;;;;;;5032629;28;20053;-64
2021/03/03 05:11:47;;;;;;;38.38;14.02;;;0.80;99.60;;;;;;5030111;28;20404;-62
2021/03/03 05:14:14;;;;;;;40.00;12.65;;;0.80;99.60;;;;;;5031711;28;20049;-63
2021/03/03 05:16:41;;;;;;;42.58;13.70;;;0.80;99.50;;;;;;5024297;28;20056;-63
2021/03/03 05:19:08;;;;;;;35.55;12.07;;;0.80;99.50;;;;;;5031833;28;20053;-63
2021/03/03 05:21:36;;;;;;;36.85;13.30;;;0.70;99.60;;;;;;5022962;28;20103;-62
2021/03/03 05:24:03;;;;;;;35.42;12.55;;;0.70;99.60;;;;;;5030299;28;20045;-62
2021/03/03 05:26:30;;;;;;;33.28;13.55;;;0.70;99.60;;;;;;5015696;28;20390;-62
2021/03/03 05:28:57;;;;;;;33.40;13.65;;;0.70;99.60;;;;;;5027981;28;20050;-62
2021/03/03 05:31:25;;;;;;;40.67;12.88;;;0.70;99.60;;;;;;5012131;28;20060;-62
2021/03/03 05:33:59;;;;;;;37.30;13.05;;;0.70;99.90;;;;;;5029084;28;20066;-62
2021/03/03 05:36:25;;;;;;;35.75;13.38;;;0.70;99.90;;;;;;5032328;28;20049;-62
2021/03/03 05:38:52;;;;;;;32.65;13.15;;;0.70;99.90;;;;;;5029030;28;20045;-62
2021/03/03 05:41:22;;;;;;;38.88;14.70;;;0.70;99.90;;;;;;5030993;28;20045;-62
2021/03/03 05:43:49;;;;;;;40.38;14.82;;;0.60;99.80;;;;;;5032206;28;20120;-61
2021/03/03 05:46:16;;;;;;;40.47;14.85;;;0.60;99.90;;;;;;5031940;28;20048;-62
2021/03/03 05:48:52;;;;;;;34.17;13.75;;;0.70;99.90;;;;;;5031016;28;20041;-62
2021/03/03 05:51:21;;;;;;;39.85;14.75;;;0.60;99.90;;;;;;5030729;28;20056;-62
2021/03/03 05:53:48;;;;;;;44.78;14.98;;;0.60;99.90;;;;;;5026994;28;20401;-62
2021/03/03 05:56:15;;;;;;;54.28;20.17;;;0.70;99.90;;;;;;5032219;28;20056;-62
2021/03/03 05:58:42;;;;;;;67.40;25.73;;;0.70;99.90;;;;;;5029335;28;20111;-62
2021/03/03 06:01:10;;;;;;;57.70;22.02;;;0.70;99.90;;;;;;5030504;28;20156;-62
2021/03/03 06:03:38;;;;;;;49.60;19.08;;;0.70;99.90;;;;;;5027993;28;20185;-62
2021/03/03 06:06:05;;;;;;;47.08;18.65;;;0.70;99.90;;;;;;5013268;28;20137;-62
2021/03/03 06:08:32;;;;;;;41.72;16.65;;;0.80;99.90;;;;;;5029094;28;20042;-63
2021/03/03 06:11:03;;;;;;;42.25;14.25;;;0.80;99.90;;;;;;5032466;28;20046;-62
2021/03/03 06:13:30;;;;;;;43.15;14.68;;;0.80;99.90;;;;;;5022006;28;20034;-62
2021/03/03 06:15:57;;;;;;;42.72;16.40;;;0.80;99.90;;;;;;5022132;28;20520;-62
2021/03/03 06:18:24;;;;;;;42.65;15.98;;;0.80;99.90;;;;;;5016716;28;20037;-62
2021/03/03 06:20:55;;;;;;;38.97;15.20;;;0.90;99.90;;;;;;5030771;28;20056;-62
2021/03/03 06:23:24;;;;;;;43.92;16.90;;;1.00;99.90;;;;;;5030869;28;20531;-62
2021/03/03 06:25:57;;;;;;;45.42;16.27;;;1.10;99.90;;;;;;5030730;28;20068;-62
2021/03/03 06:28:42;;;;;;;44.10;17.40;;;1.10;99.90;;;;;;5029647;28;20072;-62
2021/03/03 06:31:26;;;;;;;42.22;17.10;;;1.20;99.90;;;;;;5031254;28;20045;-63
2021/03/03 06:34:15;;;;;;;54.22;18.90;;;1.20;99.90;;;;;;5030415;28;20053;-63
2021/03/03 06:36:44;;;;;;;45.80;16.70;;;1.30;99.90;;;;;;5030344;28;20064;-62
2021/03/03 06:39:29;;;;;;;47.33;18.00;;;1.40;99.90;;;;;;5029230;28;20898;-61
2021/03/03 06:42:01;;;;;;;44.35;18.27;;;1.40;99.90;;;;;;5024475;28;20041;-63
2021/03/03 06:45:00;;;;;;;46.70;17.55;;;1.50;99.90;;;;;;5031219;28;20037;-63
2021/03/03 06:47:27;;;;;;;41.05;15.68;;;1.60;99.90;;;;;;5049475;28;20432;-62
2021/03/03 06:50:08;;;;;;;56.60;17.63;;;1.60;99.90;;;;;;5051946;28;20064;-62
2021/03/03 06:52:42;;;;;;;47.47;17.20;;;1.70;99.90;;;;;;5046533;28;20052;-63
2021/03/03 06:55:10;;;;;;;59.15;18.05;;;1.70;99.90;;;;;;5048012;28;20044;-62
2021/03/03 06:57:37;;;;;;;43.75;15.75;;;1.80;99.90;;;;;;5046907;28;20064;-62
2021/03/03 07:00:08;;;;;;;48.72;16.70;;;1.90;99.90;;;;;;5042862;28;20084;-62
2021/03/03 07:02:37;;;;;;;43.03;16.73;;;2.00;99.90;;;;;;5023119;28;20052;-62
2021/03/03 07:05:07;;;;;;;41.83;15.60;;;2.10;99.90;;;;;;5047388;28;20072;-62
2021/03/03 07:07:33;;;;;;;37.67;15.02;;;2.20;99.90;;;;;;5030841;28;20663;-62
2021/03/03 07:10:00;;;;;;;41.13;14.77;;;2.20;99.90;;;;;;5043599;28;20208;-62
2021/03/03 07:12:31;;;;;;;35.58;15.00;;;2.40;99.90;;;;;;5046493;28;20099;-62
2021/03/03 07:15:02;;;;;;;43.67;15.82;;;2.50;99.90;;;;;;5046917;28;20045;-63
2021/03/03 07:17:46;;;;;;;47.40;15.95;;;2.60;99.90;;;;;;5050009;28;20103;-62
2021/03/03 07:20:16;;;;;;;50.85;16.73;;;2.70;99.90;;;;;;5042611;28;20127;-62
2021/03/03 07:22:51;;;;;;;37.45;14.15;;;2.80;99.90;;;;;;5039777;28;20053;-63
2021/03/03 07:25:20;;;;;;;36.90;13.88;;;3.00;99.90;;;;;;5031676;28;20060;-62
2021/03/03 07:27:48;;;;;;;37.35;14.23;;;3.10;99.90;;;;;;5030707;28;20488;-62
2021/03/03 07:30:16;;;;;;;35.88;14.10;;;3.20;99.90;;;;;;5028166;28;20058;-62
2021/03/03 07:32:43;;;;;;;41.38;13.80;;;3.30;99.90;;;;;;5030220;28;20057;-62
2021/03/03 07:35:27;;;;;;;32.30;13.55;;;3.40;99.90;;;;;;5031667;28;20063;-62
2021/03/03 07:37:55;;;;;;;39.83;13.50;;;3.50;99.90;;;;;;5029872;28;20440;-62
2021/03/03 07:40:30;;;;;;;37.97;13.60;;;3.70;99.90;;;;;;5028864;28;20041;-63
2021/03/03 07:43:00;;;;;;;37.33;14.40;;;3.80;99.90;;;;;;5028188;28;20559;-63
2021/03/03 07:45:41;;;;;;;37.10;13.93;;;3.90;99.90;;;;;;5028438;28;20064;-63
2021/03/03 07:48:11;;;;;;;35.00;14.18;;;4.10;99.90;;;;;;5027413;28;20052;-62
2021/03/03 07:50:38;;;;;;;40.00;13.65;;;4.20;99.90;;;;;;5028210;28;20044;-62
2021/03/03 07:53:07;;;;;;;42.45;13.45;;;4.30;99.90;;;;;;5028272;28;20041;-63
2021/03/03 07:55:34;;;;;;;37.53;13.60;;;4.40;99.90;;;;;;5028982;28;20049;-62
2021/03/03 07:58:05;;;;;;;36.17;14.10;;;4.60;99.90;;;;;;5029902;28;20146;-63
2021/03/03 08:00:33;;;;;;;35.17;14.27;;;4.70;99.90;;;;;;5021724;28;20045;-62
2021/03/03 08:03:06;;;;;;;32.25;12.48;;;4.80;99.90;;;;;;5027409;28;20040;-62
2021/03/03 08:05:52;;;;;;;39.95;13.52;;;5.00;99.00;;;;;;5008286;28;20050;-62
2021/03/03 08:08:23;;;;;;;38.83;13.93;;;5.10;98.60;;;;;;5031386;28;20050;-62
2021/03/03 08:10:52;;;;;;;33.53;13.35;;;5.20;98.70;;;;;;5024044;28;20050;-62
2021/03/03 08:13:28;;;;;;;34.90;13.25;;;5.40;98.30;;;;;;5028987;28;20037;-63
2021/03/03 08:16:03;;;;;;;35.95;12.85;;;5.50;98.20;;;;;;5030724;28;22439;-62
2021/03/03 08:18:37;;;;;;;35.85;13.40;;;5.70;97.40;;;;;;5025259;28;20051;-63
2021/03/03 08:21:07;;;;;;;32.43;13.03;;;5.80;96.70;;;;;;5028390;28;20049;-62
2021/03/03 08:23:33;;;;;;;30.65;12.02;;;6.00;96.90;;;;;;5029127;28;20229;-62
2021/03/03 08:26:31;;;;;;;37.88;12.32;;;6.20;95.90;;;;;;5024565;28;20462;-62
2021/03/03 08:29:16;;;;;;;29.05;12.23;;;6.40;95.30;;;;;;5031990;28;20646;-62
2021/03/03 08:31:43;;;;;;;27.95;11.43;;;6.50;95.10;;;;;;5029245;28;20053;-62
2021/03/03 08:34:11;;;;;;;31.85;12.38;;;6.70;94.70;;;;;;5030910;28;20568;-63
2021/03/03 08:36:38;;;;;;;32.05;13.07;;;6.80;93.90;;;;;;5030688;28;20429;-61
2021/03/03 08:39:10;;;;;;;31.92;12.55;;;7.00;93.70;;;;;;5025204;28;20037;-63
2021/03/03 08:41:40;;;;;;;28.92;12.07;;;7.10;93.50;;;;;;5021988;28;20560;-63
2021/03/03 08:44:15;;;;;;;30.80;11.50;;;7.30;92.90;;;;;;5027064;28;20096;-60
2021/03/03 08:46:42;;;;;;;27.05;12.45;;;7.50;92.20;;;;;;5023151;28;20428;-60
2021/03/03 08:49:09;;;;;;;29.13;11.50;;;7.70;91.90;;;;;;5010583;28;20404;-60
2021/03/03 08:51:44;;;;;;;27.95;11.32;;;7.80;91.30;;;;;;5023116;28;20475;-59
2021/03/03 08:54:14;;;;;;;24.92;10.52;;;8.00;90.20;;;;;;5026659;28;20049;-61
2021/03/03 08:56:48;;;;;;;27.45;11.35;;;8.20;89.70;;;;;;5022319;28;20056;-60
2021/03/03 08:59:36;;;;;;;33.50;11.38;;;8.30;88.20;;;;;;5025005;28;20041;-62
2021/03/03 09:02:08;;;;;;;24.58;9.55;;;8.50;86.80;;;;;;5044035;28;20060;-62
2021/03/03 09:04:56;;;;;;;29.30;10.65;;;8.70;86.20;;;;;;5033662;28;20064;-62
2021/03/03 09:07:26;;;;;;;24.80;10.02;;;9.00;84.20;;;;;;5018750;28;20053;-62
2021/03/03 09:09:58;;;;;;;21.20;10.25;;;9.10;82.10;;;;;;5026874;28;20042;-62
2021/03/03 09:12:27;;;;;;;24.52;10.77;;;9.30;80.90;;;;;;5027347;28;20053;-61
2021/03/03 09:14:59;;;;;;;26.65;10.63;;;9.40;81.50;;;;;;5012949;28;20041;-62
2021/03/03 09:17:28;;;;;;;24.33;9.25;;;9.60;80.10;;;;;;5022134;28;20049;-62
2021/03/03 09:20:00;;;;;;;22.92;9.13;;;9.90;78.80;;;;;;5022320;28;20042;-65
2021/03/03 09:22:30;;;;;;;26.13;9.77;;;10.00;78.00;;;;;;5026698;28;20040;-62
2021/03/03 09:25:06;;;;;;;24.63;9.10;;;10.20;75.60;;;;;;5029781;28;20344;-67
2021/03/03 09:27:33;;;;;;;19.52;7.35;;;10.40;73.60;;;;;;5025172;28;20423;-63
2021/03/03 09:30:00;;;;;;;20.90;8.30;;;10.50;71.90;;;;;;5027542;28;20072;-63
2021/03/03 09:32:28;;;;;;;18.70;7.93;;;10.70;71.10;;;;;;5027493;28;20045;-65
2021/03/03 09:35:00;;;;;;;19.27;8.15;;;10.80;69.40;;;;;;5019834;28;20065;-63
2021/03/03 09:37:39;;;;;;;21.17;7.78;;;10.90;69.50;;;;;;5030372;28;20041;-64
2021/03/03 09:40:08;;;;;;;21.90;8.80;;;11.10;69.50;;;;;;5023914;28;20047;-63
2021/03/03 09:42:40;;;;;;;24.55;8.68;;;11.20;68.50;;;;;;5025244;28;20495;-63
2021/03/03 09:45:09;;;;;;;21.00;7.63;;;11.40;67.40;;;;;;5028422;28;20053;-62
2021/03/03 09:47:38;;;;;;;18.95;8.48;;;11.50;66.20;;;;;;5026024;28;20053;-62
2021/03/03 09:50:18;;;;;;;22.73;8.05;;;11.70;66.40;;;;;;5027134;28;20164;-63
2021/03/03 09:52:46;;;;;;;17.58;7.32;;;11.80;65.80;;;;;;5028031;28;20045;-63
2021/03/03 09:55:15;;;;;;;21.02;7.22;;;12.00;65.10;;;;;;5029407;28;20476;-62
2021/03/03 09:57:43;;;;;;;17.63;7.28;;;12.10;63.60;;;;;;5025214;28;20067;-63
2021/03/03 10:00:16;;;;;;;16.38;7.03;;;12.20;63.50;;;;;;5027502;28;20064;-63
2021/03/03 10:02:48;;;;;;;19.00;7.80;;;12.40;63.00;;;;;;5028716;28;20052;-62
2021/03/03 10:05:24;;;;;;;22.92;6.05;;;12.50;61.10;;;;;;5025367;28;20037;-62
2021/03/03 10:07:52;;;;;;;15.30;5.97;;;12.70;60.00;;;;;;5021955;28;20045;-62
2021/03/03 10:10:21;;;;;;;20.75;7.05;;;12.90;59.30;;;;;;5024008;28;20049;-64
2021/03/03 10:12:48;;;;;;;15.32;5.95;;;13.00;57.60;;;;;;5012519;28;20485;-63
2021/03/03 10:15:19;;;;;;;15.02;5.45;;;13.10;57.30;;;;;;5027036;28;20049;-62
2021/03/03 10:17:54;;;;;;;16.80;6.40;;;13.20;55.90;;;;;;5026125;28;20704;-63
2021/03/03 10:20:27;;;;;;;17.65;6.85;;;13.30;55.90;;;;;;5017770;28;20042;-63
2021/03/03 10:22:55;;;;;;;12.98;5.10;;;13.50;55.40;;;;;;5027056;28;20045;-66
2021/03/03 10:25:36;;;;;;;14.65;5.35;;;13.60;54.30;;;;;;5027515;28;20061;-63
2021/03/03 10:28:07;;;;;;;19.48;5.93;;;13.70;53.90;;;;;;5022254;28;20041;-63
2021/03/03 10:30:34;;;;;;;17.38;6.45;;;13.80;53.80;;;;;;5021058;28;20037;-63
2021/03/03 10:33:01;;;;;;;16.25;6.70;;;14.00;54.80;;;;;;5027285;28;20145;-63
2021/03/03 10:35:30;;;;;;;17.60;5.82;;;14.10;54.30;;;;;;5027525;28;20128;-62
2021/03/03 10:38:11;;;;;;;17.85;7.18;;;14.20;55.10;;;;;;5026698;28;20050;-62
2021/03/03 10:40:40;;;;;;;16.50;6.50;;;14.20;54.50;;;;;;5022317;28;20056;-63
2021/03/03 10:43:17;;;;;;;17.52;7.25;;;14.30;53.50;;;;;;5023917;28;20041;-63
2021/03/03 10:45:46;;;;;;;21.27;7.85;;;14.50;53.10;;;;;;5015201;28;20097;-63
2021/03/03 10:48:30;;;;;;;19.13;8.07;;;14.60;53.00;;;;;;5025497;28;20111;-63
2021/03/03 10:51:01;;;;;;;17.20;6.97;;;14.80;53.60;;;;;;5021395;28;20140;-63
2021/03/03 10:53:49;;;;;;;15.02;6.72;;;14.90;51.50;;;;;;5027734;28;20123;-64
2021/03/03 10:56:23;;;;;;;18.20;8.57;;;14.90;50.90;;;;;;5027657;28;20079;-64
2021/03/03 10:58:50;;;;;;;15.00;7.22;;;14.60;52.60;;;;;;5025967;28;20044;-67
2021/03/03 11:01:18;;;;;;;18.27;8.80;;;14.80;53.30;;;;;;5026482;28;20045;-65
2021/03/03 11:03:58;;;;;;;19.33;8.50;;;15.00;53.20;;;;;;5019188;28;20054;-63
2021/03/03 11:06:29;;;;;;;15.80;6.97;;;15.20;53.50;;;;;;5026840;28;20041;-64
2021/03/03 11:08:59;;;;;;;17.35;7.03;;;15.30;51.50;;;;;;5023706;28;20049;-62
2021/03/03 11:11:26;;;;;;;16.13;6.85;;;15.40;51.80;;;;;;5025510;28;20049;-67
2021/03/03 11:13:53;;;;;;;14.68;6.78;;;15.60;50.30;;;;;;5026897;28;20515;-62
2021/03/03 11:16:23;;;;;;;17.05;7.32;;;15.70;50.20;;;;;;5023421;28;20118;-63
2021/03/03 11:18:50;;;;;;;16.52;5.97;;;15.80;49.50;;;;;;5019605;28;20500;-62
2021/03/03 11:21:17;;;;;;;15.35;5.97;;;15.70;48.10;;;;;;5020655;28;20508;-62
2021/03/03 11:23:45;;;;;;;15.90;6.45;;;15.70;47.10;;;;;;5027807;28;20120;-62
2021/03/03 11:26:11;;;;;;;13.95;5.78;;;15.50;48.40;;;;;;5025389;28;20060;-62
2021/03/03 11:28:38;;;;;;;15.30;5.70;;;15.70;47.60;;;;;;5025650;28;20045;-62
2021/03/03 11:31:05;;;;;;;12.85;5.65;;;15.80;46.90;;;;;;5023812;28;20049;-63
2021/03/03 11:33:32;;;;;;;15.40;5.97;;;15.90;46.80;;;;;;5025845;28;20055;-63
2021/03/03 11:35:59;;;;;;;16.65;8.25;;;16.00;48.30;;;;;;5024447;28;20471;-62
2021/03/03 11:38:29;;;;;;;12.00;4.93;;;16.10;48.50;;;;;;5024384;28;20077;-63
2021/03/03 11:40:55;;;;;;;10.98;4.88;;;16.30;45.30;;;;;;5024299;28;20404;-63
2021/03/03 11:43:55;;;;;;;12.05;5.65;;;16.50;45.00;;;;;;5020893;28;20046;-62
2021/03/03 11:46:21;;;;;;;13.88;5.85;;;16.50;47.00;;;;;;5036476;28;20042;-62
2021/03/03 11:48:48;;;;;;;15.65;6.57;;;16.60;46.00;;;;;;5020302;28;20047;-63
2021/03/03 11:51:15;;;;;;;11.70;4.95;;;16.70;46.60;;;;;;5023263;28;20111;-64
2021/03/03 11:58:00;;;;;;;9.80;4.68;;;17.00;44.80;;;;;;5008408;28;20064;-63
2021/03/03 12:00:27;;;;;;;11.65;4.75;;;17.10;42.60;;;;;;5016317;28;20041;-62
2021/03/03 12:02:53;;;;;;;10.30;4.35;;;17.20;42.10;;;;;;5021888;28;20045;-63
2021/03/03 12:05:21;;;;;;;11.77;5.20;;;17.30;42.60;;;;;;5026442;28;20516;-62
2021/03/03 12:07:48;;;;;;;10.18;4.07;;;17.50;42.10;;;;;;5024947;28;20169;-62
2021/03/03 12:10:14;;;;;;;12.77;4.88;;;17.40;41.30;;;;;;5023347;28;20603;-63
2021/03/03 12:12:41;;;;;;;10.27;4.18;;;17.60;42.00;;;;;;5022994;28;20046;-63
2021/03/03 12:15:11;;;;;;;9.27;4.18;;;17.60;39.90;;;;;;5022769;28;20045;-63
2021/03/03 12:17:37;;;;;;;10.90;4.80;;;17.60;41.40;;;;;;5026095;28;20065;-63
2021/03/03 12:20:14;;;;;;;11.85;4.57;;;17.70;41.80;;;;;;5022230;28;20059;-63
2021/03/03 12:22:40;;;;;;;12.68;6.13;;;17.90;41.40;;;;;;5025660;28;20656;-63
2021/03/03 12:25:08;;;;;;;11.38;5.03;;;18.00;40.80;;;;;;5023276;28;20053;-63
2021/03/03 12:27:34;;;;;;;7.45;3.30;;;18.10;37.90;;;;;;5024757;28;20042;-62
2021/03/03 12:30:01;;;;;;;11.43;4.43;;;18.10;39.50;;;;;;5022748;28;20041;-62
2021/03/03 12:32:27;;;;;;;7.68;4.10;;;18.00;39.80;;;;;;5027110;28;20045;-62
2021/03/03 12:34:54;;;;;;;9.48;4.53;;;18.20;38.30;;;;;;5024467;28;20058;-62
2021/03/03 12:37:20;;;;;;;9.35;3.70;;;18.40;38.40;;;;;;5023615;28;20095;-63
2021/03/03 12:39:48;;;;;;;10.50;3.88;;;18.60;38.30;;;;;;5033459;28;20042;-63
2021/03/03 12:42:14;;;;;;;8.40;3.50;;;18.70;39.00;;;;;;5025807;28;20108;-63
2021/03/03 12:44:41;;;;;;;10.40;3.92;;;18.80;37.40;;;;;;5031417;28;20489;-63
2021/03/03 12:47:07;;;;;;;8.38;3.95;;;19.00;37.50;;;;;;5030984;28;20041;-63
2021/03/03 12:49:34;;;;;;;9.20;3.63;;;19.20;37.20;;;;;;5033106;28;20117;-63
2021/03/03 12:52:02;;;;;;;9.20;3.17;;;19.50;37.10;;;;;;5030156;28;20053;-63
2021/03/03 12:54:28;;;;;;;7.43;3.15;;;19.70;36.50;;;;;;5032984;28;20049;-63
2021/03/03 12:56:55;;;;;;;10.40;3.78;;;20.00;36.90;;;;;;5032368;28;20532;-62